createdAt,value
2018-10-12T00:00:17.155Z,15.90
2018-10-12T00:02:45.639Z,15.80
2018-10-12T00:05:14.183Z,15.70
2018-10-12T00:07:43.290Z,15.60
2018-10-12T00:10:12.104Z,15.30
2018-10-12T00:12:41.095Z,15.20
2018-10-12T00:15:10.296Z,15.20
2018-10-12T00:17:38.783Z,15.10
2018-10-12T00:20:07.968Z,15.10
2018-10-12T00:22:36.478Z,15.10
2018-10-12T00:25:05.441Z,15.00
2018-10-12T00:27:34.153Z,15.00
2018-10-12T00:30:02.680Z,15.00
2018-10-12T00:32:31.199Z,15.10
2018-10-12T00:34:59.726Z,15.10
2018-10-12T00:37:28.254Z,15.10
2018-10-12T00:39:56.751Z,15.10
2018-10-12T00:42:25.236Z,15.10
2018-10-12T00:44:53.770Z,15.20
2018-10-12T00:47:22.282Z,15.10
2018-10-12T00:49:50.863Z,15.00
2018-10-12T00:52:19.373Z,15.00
2018-10-12T00:54:47.900Z,14.90
2018-10-12T00:57:16.416Z,14.90
2018-10-12T00:59:45.048Z,14.80
2018-10-12T01:02:13.666Z,14.80
2018-10-12T01:04:42.164Z,14.80
2018-10-12T01:07:10.758Z,14.80
2018-10-12T01:09:39.297Z,14.80
2018-10-12T01:12:40.144Z,14.70
2018-10-12T01:15:08.796Z,14.70
2018-10-12T01:17:37.880Z,14.70
2018-10-12T01:20:07.183Z,14.60
2018-10-12T01:22:35.828Z,14.60
2018-10-12T01:25:05.206Z,14.50
2018-10-12T01:27:34.160Z,14.60
2018-10-12T01:30:03.592Z,14.80
2018-10-12T01:32:37.353Z,14.90
2018-10-12T01:35:05.910Z,14.90
2018-10-12T01:37:34.478Z,14.90
2018-10-12T01:40:03.078Z,14.80
2018-10-12T01:42:31.584Z,14.70
2018-10-12T01:45:00.148Z,14.60
2018-10-12T01:47:28.792Z,14.50
2018-10-12T01:49:57.377Z,14.50
2018-10-12T01:52:25.936Z,14.40
2018-10-12T01:54:54.458Z,14.30
2018-10-12T01:57:23.012Z,14.30
2018-10-12T01:59:51.571Z,14.20
2018-10-12T02:02:20.099Z,14.20
2018-10-12T02:04:48.610Z,14.20
2018-10-12T02:07:17.195Z,14.10
2018-10-12T02:09:45.707Z,14.10
2018-10-12T02:12:14.242Z,14.00
2018-10-12T02:14:42.764Z,13.90
2018-10-12T02:17:11.299Z,13.90
2018-10-12T02:19:39.830Z,13.80
2018-10-12T02:22:08.368Z,13.90
2018-10-12T02:24:36.913Z,13.80
2018-10-12T02:27:05.464Z,13.80
2018-10-12T02:29:33.963Z,13.90
2018-10-12T02:32:02.505Z,13.90
2018-10-12T02:34:31.064Z,13.90
2018-10-12T02:36:59.818Z,13.90
2018-10-12T02:39:28.352Z,13.90
2018-10-12T02:41:56.817Z,14.00
2018-10-12T02:44:25.355Z,14.00
2018-10-12T02:46:53.877Z,14.00
2018-10-12T02:49:22.372Z,14.00
2018-10-12T02:51:50.880Z,13.90
2018-10-12T02:54:19.429Z,13.90
2018-10-12T02:56:47.970Z,13.90
2018-10-12T02:59:16.489Z,13.90
2018-10-12T03:01:45.032Z,13.90
2018-10-12T03:04:13.560Z,13.90
2018-10-12T03:06:42.112Z,13.90
2018-10-12T03:09:11.673Z,13.90
2018-10-12T03:11:40.568Z,13.90
2018-10-12T03:14:09.063Z,13.90
2018-10-12T03:16:37.584Z,13.80
2018-10-12T03:19:06.137Z,13.90
2018-10-12T03:21:34.645Z,13.90
2018-10-12T03:24:03.290Z,13.90
2018-10-12T03:26:31.806Z,13.90
2018-10-12T03:29:00.339Z,13.90
2018-10-12T03:31:28.865Z,13.80
2018-10-12T03:33:57.456Z,13.70
2018-10-12T03:36:26.760Z,13.60
2018-10-12T03:38:55.340Z,13.50
2018-10-12T03:41:23.921Z,13.50
2018-10-12T03:43:52.410Z,13.40
2018-10-12T03:46:22.111Z,13.40
2018-10-12T03:48:50.605Z,13.30
2018-10-12T03:51:19.137Z,13.10
2018-10-12T03:53:47.676Z,13.00
2018-10-12T03:56:16.255Z,12.90
2018-10-12T03:58:44.771Z,12.80
2018-10-12T04:01:13.317Z,12.70
2018-10-12T04:03:41.840Z,12.80
2018-10-12T04:06:10.340Z,12.70
2018-10-12T04:08:38.872Z,12.70
2018-10-12T04:11:07.542Z,12.70
2018-10-12T04:13:36.071Z,12.60
2018-10-12T04:16:04.640Z,12.60
2018-10-12T04:18:33.141Z,12.50
2018-10-12T04:21:01.611Z,12.50
2018-10-12T04:23:30.115Z,12.40
2018-10-12T04:25:58.625Z,12.30
2018-10-12T04:28:27.307Z,12.30
2018-10-12T04:30:55.834Z,12.30
2018-10-12T04:33:24.341Z,12.40
2018-10-12T04:35:52.871Z,12.50
2018-10-12T04:38:21.447Z,12.40
2018-10-12T04:41:04.788Z,12.30
2018-10-12T04:43:33.628Z,12.20
2018-10-12T04:46:03.970Z,12.00
2018-10-12T04:48:32.780Z,12.00
2018-10-12T04:51:01.993Z,12.10
2018-10-12T04:53:30.600Z,12.00
2018-10-12T04:55:59.111Z,11.90
2018-10-12T04:58:27.939Z,11.90
2018-10-12T05:00:56.515Z,11.90
2018-10-12T05:03:25.079Z,11.90
2018-10-12T05:05:53.624Z,12.00
2018-10-12T05:08:22.158Z,12.00
2018-10-12T05:10:50.717Z,12.10
2018-10-12T05:13:19.235Z,12.00
2018-10-12T05:15:47.769Z,11.70
2018-10-12T05:18:16.264Z,11.60
2018-10-12T05:20:44.787Z,11.60
2018-10-12T05:23:13.327Z,11.30
2018-10-12T05:25:42.036Z,11.10
2018-10-12T05:28:10.522Z,11.00
2018-10-12T05:30:39.012Z,11.10
2018-10-12T05:33:07.684Z,11.00
2018-10-12T05:35:36.197Z,10.90
2018-10-12T05:38:05.133Z,10.80
2018-10-12T05:40:33.637Z,10.90
2018-10-12T05:43:02.195Z,10.80
2018-10-12T05:45:30.640Z,10.90
2018-10-12T05:48:10.368Z,10.80
2018-10-12T05:50:38.859Z,10.80
2018-10-12T05:53:07.503Z,10.80
2018-10-12T05:55:36.766Z,10.80
2018-10-12T05:58:05.772Z,10.70
2018-10-12T06:00:34.288Z,10.70
2018-10-12T06:03:02.792Z,10.70
2018-10-12T06:05:31.356Z,10.60
2018-10-12T06:07:59.929Z,10.60
2018-10-12T06:10:28.480Z,10.60
2018-10-12T06:12:57.057Z,10.70
2018-10-12T06:15:26.018Z,10.70
2018-10-12T06:17:54.500Z,10.80
2018-10-12T06:20:23.072Z,10.90
2018-10-12T06:22:51.604Z,11.00
2018-10-12T06:25:20.142Z,11.10
2018-10-12T06:27:48.645Z,11.30
2018-10-12T06:30:17.144Z,12.30
2018-10-12T06:32:45.704Z,13.90
2018-10-12T06:35:14.395Z,15.50
2018-10-12T06:37:42.944Z,16.80
2018-10-12T06:40:11.437Z,17.00
2018-10-12T06:42:39.940Z,17.70
2018-10-12T06:45:08.524Z,18.50
2018-10-12T06:47:37.023Z,19.30
2018-10-12T06:50:06.021Z,19.00
2018-10-12T06:52:34.668Z,19.70
2018-10-12T06:55:03.212Z,20.80
2018-10-12T06:57:31.763Z,21.80
2018-10-12T07:00:00.448Z,22.60
2018-10-12T07:02:28.954Z,23.40
2018-10-12T07:04:57.640Z,23.70
2018-10-12T07:07:26.184Z,24.30
2018-10-12T07:09:54.711Z,24.90
2018-10-12T07:12:23.264Z,25.30
2018-10-12T07:14:51.785Z,25.80
2018-10-12T07:17:20.461Z,26.10
2018-10-12T07:19:48.977Z,26.30
2018-10-12T07:22:17.526Z,26.80
2018-10-12T07:24:46.066Z,27.10
2018-10-12T07:27:14.573Z,27.70
2018-10-12T07:29:43.095Z,27.80
2018-10-12T07:32:11.588Z,28.50
2018-10-12T07:34:40.104Z,28.70
2018-10-12T07:37:08.614Z,29.20
2018-10-12T07:39:37.101Z,29.60
2018-10-12T07:42:05.635Z,30.20
2018-10-12T07:44:34.171Z,30.20
2018-10-12T07:47:02.709Z,30.50
2018-10-12T07:49:31.243Z,30.50
2018-10-12T07:51:59.744Z,30.90
2018-10-12T07:54:28.260Z,31.30
2018-10-12T07:57:00.956Z,31.20
2018-10-12T07:59:29.472Z,31.50
2018-10-12T08:01:57.988Z,32.10
2018-10-12T08:04:26.494Z,32.30
2018-10-12T08:06:55.029Z,32.50
2018-10-12T08:09:23.569Z,32.70
2018-10-12T08:11:52.091Z,32.80
2018-10-12T08:14:20.816Z,32.60
2018-10-12T08:16:49.151Z,32.70
2018-10-12T08:19:17.716Z,32.40
2018-10-12T08:21:46.270Z,31.40
2018-10-12T08:24:14.784Z,30.50
2018-10-12T08:26:43.317Z,30.30
2018-10-12T08:29:11.831Z,30.40
2018-10-12T08:31:40.412Z,30.50
2018-10-12T08:34:09.800Z,30.70
2018-10-12T08:36:38.546Z,29.90
2018-10-12T08:39:11.025Z,29.60
2018-10-12T08:41:39.915Z,29.30
2018-10-12T08:44:10.520Z,28.60
2018-10-12T08:46:39.056Z,28.20
2018-10-12T08:49:07.574Z,27.60
2018-10-12T08:51:36.300Z,26.90
2018-10-12T08:54:05.052Z,26.70
2018-10-12T08:56:33.609Z,26.70
2018-10-12T08:59:02.172Z,26.80
2018-10-12T09:01:30.700Z,26.70
2018-10-12T09:03:59.480Z,26.60
2018-10-12T09:06:28.060Z,26.50
2018-10-12T09:08:56.547Z,26.40
2018-10-12T09:11:25.104Z,26.50
2018-10-12T09:13:53.644Z,26.50
2018-10-12T09:16:22.245Z,26.60
2018-10-12T09:18:50.740Z,26.70
2018-10-12T09:21:19.271Z,26.80
2018-10-12T09:23:47.817Z,26.90
2018-10-12T09:26:16.349Z,26.60
2018-10-12T09:28:44.853Z,26.60
2018-10-12T09:31:13.365Z,26.50
2018-10-12T09:33:41.871Z,26.60
2018-10-12T09:36:10.413Z,26.70
2018-10-12T09:38:38.929Z,26.60
2018-10-12T09:41:07.466Z,26.60
2018-10-12T09:43:35.970Z,26.80
2018-10-12T09:46:04.519Z,26.80
2018-10-12T09:48:33.043Z,26.90
2018-10-12T09:51:01.583Z,26.80
2018-10-12T09:53:30.114Z,26.80
2018-10-12T09:55:58.720Z,26.90
2018-10-12T09:58:27.211Z,26.90
2018-10-12T10:01:01.366Z,27.00
2018-10-12T10:03:35.345Z,27.00
2018-10-12T10:06:04.532Z,27.20
2018-10-12T10:08:33.278Z,27.30
2018-10-12T10:11:01.582Z,27.40
2018-10-12T10:13:30.428Z,27.40
2018-10-12T10:15:59.536Z,27.40
2018-10-12T10:18:28.419Z,27.20
2018-10-12T10:20:56.972Z,27.00
2018-10-12T10:23:25.505Z,27.10
2018-10-12T10:25:54.005Z,27.20
2018-10-12T10:28:22.532Z,27.40
2018-10-12T10:30:51.007Z,27.50
2018-10-12T10:33:19.522Z,27.60
2018-10-12T10:35:48.039Z,27.40
2018-10-12T10:38:16.552Z,27.20
2018-10-12T10:40:45.074Z,27.00
2018-10-12T10:43:13.571Z,27.00
2018-10-12T10:45:42.100Z,27.00
2018-10-12T10:48:10.595Z,27.10
2018-10-12T10:50:39.153Z,27.40
2018-10-12T10:53:07.700Z,27.50
2018-10-12T10:55:36.212Z,27.60
2018-10-12T10:58:04.720Z,27.70
2018-10-12T11:00:33.224Z,27.90
2018-10-12T11:03:01.750Z,27.80
2018-10-12T11:05:30.255Z,27.90
2018-10-12T11:07:58.853Z,27.90
2018-10-12T11:10:27.340Z,28.10
2018-10-12T11:12:55.949Z,28.20
2018-10-12T11:15:24.727Z,28.10
2018-10-12T11:17:53.316Z,28.10
2018-10-12T11:20:21.819Z,28.20
2018-10-12T11:22:50.323Z,28.30
2018-10-12T11:25:18.839Z,28.20
2018-10-12T11:27:47.415Z,28.00
2018-10-12T11:30:16.016Z,28.10
2018-10-12T11:32:44.488Z,28.20
2018-10-12T11:35:12.999Z,28.00
2018-10-12T11:37:41.500Z,27.90
2018-10-12T11:40:10.031Z,27.60
2018-10-12T11:42:49.639Z,27.20
2018-10-12T11:45:18.161Z,27.30
2018-10-12T11:47:46.678Z,27.40
2018-10-12T11:50:15.171Z,27.50
2018-10-12T11:52:43.715Z,27.60
2018-10-12T11:55:12.239Z,27.40
2018-10-12T11:57:40.752Z,27.30
2018-10-12T12:00:09.361Z,27.10
2018-10-12T12:02:37.875Z,27.10
2018-10-12T12:05:06.627Z,27.10
2018-10-12T12:07:35.167Z,27.20
2018-10-12T12:10:03.747Z,27.10
2018-10-12T12:12:32.263Z,27.00
2018-10-12T12:15:00.751Z,27.10
2018-10-12T12:17:29.255Z,27.30
2018-10-12T12:19:57.801Z,27.40
2018-10-12T12:22:26.407Z,27.50
2018-10-12T12:24:54.935Z,27.60
2018-10-12T12:27:23.447Z,27.70
2018-10-12T12:29:51.946Z,27.70
2018-10-12T12:32:20.457Z,27.70
2018-10-12T12:34:49.032Z,27.70
2018-10-12T12:37:17.492Z,27.10
2018-10-12T12:39:45.972Z,26.90
2018-10-12T12:42:14.477Z,26.80
2018-10-12T12:44:43.067Z,26.80
2018-10-12T12:47:11.693Z,27.00
2018-10-12T12:49:40.180Z,27.20
2018-10-12T12:52:08.834Z,27.40
2018-10-12T12:54:37.342Z,27.50
2018-10-12T12:57:05.843Z,27.50
2018-10-12T12:59:34.359Z,27.50
2018-10-12T13:02:02.879Z,27.50
2018-10-12T13:04:31.369Z,27.50
2018-10-12T13:06:59.852Z,27.50
2018-10-12T13:09:28.369Z,27.40
2018-10-12T13:11:56.863Z,27.30
2018-10-12T13:14:25.372Z,27.30
2018-10-12T13:16:53.995Z,27.30
2018-10-12T13:19:22.618Z,27.30
2018-10-12T13:21:51.327Z,27.10
2018-10-12T13:24:19.843Z,27.20
2018-10-12T13:26:48.330Z,27.30
2018-10-12T13:29:16.818Z,27.20
2018-10-12T13:31:45.343Z,27.00
2018-10-12T13:34:13.828Z,26.70
2018-10-12T13:36:42.347Z,26.60
2018-10-12T13:39:12.289Z,26.70
2018-10-12T13:41:40.843Z,26.80
2018-10-12T13:44:10.040Z,26.70
2018-10-12T13:46:38.679Z,26.70
2018-10-12T13:49:07.512Z,26.80
2018-10-12T13:51:36.056Z,26.70
2018-10-12T13:54:04.652Z,26.50
2018-10-12T13:56:33.159Z,26.30
2018-10-12T13:59:01.688Z,26.20
2018-10-12T14:01:30.184Z,26.20
2018-10-12T14:03:58.699Z,26.10
2018-10-12T14:06:27.284Z,26.20
2018-10-12T14:08:55.768Z,26.20
2018-10-12T14:11:24.335Z,26.30
2018-10-12T14:13:52.835Z,26.30
2018-10-12T14:16:21.331Z,26.30
2018-10-12T14:18:49.934Z,26.30
2018-10-12T14:21:18.316Z,26.20
2018-10-12T14:23:46.816Z,26.10
2018-10-12T14:26:15.303Z,26.00
2018-10-12T14:28:43.816Z,26.00
2018-10-12T14:31:12.307Z,26.10
2018-10-12T14:33:40.791Z,26.20
2018-10-12T14:36:09.305Z,26.10
2018-10-12T14:38:37.812Z,26.00
2018-10-12T14:41:06.532Z,26.10
2018-10-12T14:43:35.009Z,25.90
2018-10-12T14:46:03.530Z,25.80
2018-10-12T14:48:32.031Z,25.90
2018-10-12T14:51:00.516Z,25.70
2018-10-12T14:53:29.070Z,25.40
2018-10-12T14:55:57.657Z,25.30
2018-10-12T14:58:26.178Z,25.20
2018-10-12T15:00:54.723Z,25.30
2018-10-12T15:03:23.232Z,25.20
2018-10-12T15:05:51.728Z,25.10
2018-10-12T15:08:20.219Z,25.10
2018-10-12T15:10:48.706Z,25.10
2018-10-12T15:13:17.211Z,25.00
2018-10-12T15:15:45.751Z,25.00
2018-10-12T15:18:14.239Z,24.80
2018-10-12T15:20:42.807Z,24.70
2018-10-12T15:23:11.264Z,24.60
2018-10-12T15:25:39.944Z,24.70
2018-10-12T15:28:08.379Z,24.50
2018-10-12T15:30:36.960Z,24.40
2018-10-12T15:33:05.472Z,24.30
2018-10-12T15:35:33.976Z,24.30
2018-10-12T15:38:02.508Z,24.30
2018-10-12T15:40:31.118Z,24.10
2018-10-12T15:42:59.766Z,23.80
2018-10-12T15:45:28.183Z,23.60
2018-10-12T15:47:56.725Z,23.50
2018-10-12T15:50:25.252Z,23.40
2018-10-12T15:52:53.836Z,23.20
2018-10-12T15:55:22.344Z,23.10
2018-10-12T15:57:50.871Z,22.80
2018-10-12T16:00:19.368Z,22.70
2018-10-12T16:02:47.853Z,22.60
2018-10-12T16:05:16.378Z,22.40
2018-10-12T16:07:44.927Z,22.40
2018-10-12T16:10:13.581Z,22.10
2018-10-12T16:12:42.128Z,22.00
2018-10-12T16:15:10.696Z,21.90
2018-10-12T16:17:39.221Z,21.70
2018-10-12T16:20:07.776Z,21.70
2018-10-12T16:22:36.323Z,21.70
2018-10-12T16:26:17.172Z,21.60
2018-10-12T16:28:45.684Z,21.40
2018-10-12T16:31:14.238Z,21.20
2018-10-12T16:33:42.724Z,21.00
2018-10-12T16:36:11.282Z,20.80
2018-10-12T16:38:39.822Z,20.60
2018-10-12T16:41:08.352Z,20.40
2018-10-12T16:43:36.873Z,20.20
2018-10-12T16:46:05.379Z,19.90
2018-10-12T16:48:33.926Z,19.70
2018-10-12T16:51:02.417Z,19.60
2018-10-12T16:53:30.948Z,19.60
2018-10-12T16:55:59.479Z,19.60
2018-10-12T16:58:28.004Z,19.40
2018-10-12T17:00:56.535Z,19.40
2018-10-12T17:03:25.043Z,19.30
2018-10-12T17:05:53.576Z,19.10
2018-10-12T17:08:22.092Z,19.00
2018-10-12T17:10:50.630Z,19.00
2018-10-12T17:13:19.143Z,18.90
2018-10-12T17:15:47.665Z,18.90
2018-10-12T17:18:16.436Z,18.90
2018-10-12T17:20:44.975Z,18.90
2018-10-12T17:23:13.471Z,18.90
2018-10-12T17:25:41.969Z,18.90
2018-10-12T17:28:10.488Z,18.90
2018-10-12T17:30:38.965Z,18.80
2018-10-12T17:33:07.485Z,18.80
2018-10-12T17:35:35.980Z,18.70
2018-10-12T17:38:04.522Z,18.60
2018-10-12T17:40:33.594Z,18.50
2018-10-12T17:43:02.245Z,18.50
2018-10-12T17:45:30.704Z,18.40
2018-10-12T17:47:59.223Z,18.30
2018-10-12T17:50:27.828Z,18.20
2018-10-12T17:52:56.323Z,18.20
2018-10-12T17:55:24.920Z,18.00
2018-10-12T17:57:53.415Z,18.00
2018-10-12T18:00:22.556Z,17.90
2018-10-12T18:02:51.161Z,18.00
2018-10-12T18:05:19.689Z,17.90
2018-10-12T18:07:48.235Z,17.90
2018-10-12T18:10:16.767Z,17.80
2018-10-12T18:12:45.811Z,17.80
2018-10-12T18:15:14.359Z,17.80
2018-10-12T18:17:42.886Z,17.70
2018-10-12T18:20:12.145Z,17.70
2018-10-12T18:22:40.663Z,17.70
2018-10-12T18:25:09.292Z,17.60
2018-10-12T18:27:37.843Z,17.60
2018-10-12T18:30:06.452Z,17.50
2018-10-12T18:32:34.980Z,17.50
2018-10-12T18:35:03.524Z,17.50
2018-10-12T18:37:32.110Z,17.40
2018-10-12T18:40:00.674Z,17.10
2018-10-12T18:42:29.176Z,16.80
2018-10-12T18:44:57.726Z,16.80
2018-10-12T18:47:26.231Z,16.80
2018-10-12T18:49:54.732Z,16.80
2018-10-12T18:52:23.248Z,16.90
2018-10-12T18:54:51.784Z,16.90
2018-10-12T18:57:20.300Z,16.80
2018-10-12T18:59:48.814Z,16.40
2018-10-12T19:02:17.335Z,16.10
2018-10-12T19:04:45.973Z,15.70
2018-10-12T19:07:14.384Z,15.50
2018-10-12T19:09:42.890Z,15.40
2018-10-12T19:12:11.408Z,15.40
2018-10-12T19:14:39.944Z,15.50
2018-10-12T19:17:08.452Z,15.60
2018-10-12T19:19:37.088Z,15.70
2018-10-12T19:22:05.540Z,15.50
2018-10-12T19:24:34.066Z,15.50
2018-10-12T19:27:02.580Z,15.60
2018-10-12T19:29:31.114Z,15.60
2018-10-12T19:31:59.651Z,15.60
2018-10-12T19:34:28.172Z,15.50
2018-10-12T19:36:56.688Z,15.30
2018-10-12T19:39:25.204Z,15.20
2018-10-12T19:41:54.775Z,15.00
2018-10-12T19:44:23.753Z,14.90
2018-10-12T19:46:52.263Z,14.90
2018-10-12T19:49:20.806Z,14.90
2018-10-12T19:51:49.318Z,14.90
2018-10-12T19:54:17.820Z,14.90
2018-10-12T19:56:46.356Z,14.80
2018-10-12T19:59:14.958Z,14.60
2018-10-12T20:01:43.484Z,14.60
2018-10-12T20:04:11.976Z,14.50
2018-10-12T20:06:40.460Z,14.50
2018-10-12T20:09:10.996Z,14.50
2018-10-12T20:11:39.811Z,14.40
2018-10-12T20:14:08.689Z,14.40
2018-10-12T20:16:37.240Z,14.20
2018-10-12T20:19:05.772Z,14.20
2018-10-12T20:21:34.304Z,14.20
2018-10-12T20:24:02.950Z,14.10
2018-10-12T20:26:31.464Z,14.10
2018-10-12T20:28:59.971Z,14.00
2018-10-12T20:31:28.551Z,13.90
2018-10-12T20:33:57.016Z,13.90
2018-10-12T20:36:25.557Z,13.80
2018-10-12T20:38:54.067Z,13.80
2018-10-12T20:41:22.612Z,13.80
2018-10-12T20:43:51.151Z,13.60
2018-10-12T20:46:19.720Z,13.60
2018-10-12T20:48:48.272Z,13.50
2018-10-12T20:51:16.816Z,13.40
2018-10-12T20:53:45.323Z,13.30
2018-10-12T20:56:13.842Z,13.30
2018-10-12T20:58:42.358Z,13.30
2018-10-12T21:01:10.837Z,13.30
2018-10-12T21:03:39.344Z,13.30
2018-10-12T21:06:08.365Z,13.00
2018-10-12T21:08:37.082Z,13.00
2018-10-12T21:11:05.700Z,13.00
2018-10-12T21:13:34.187Z,13.10
2018-10-12T21:16:02.691Z,13.10
2018-10-12T21:18:31.185Z,12.90
2018-10-12T21:20:59.797Z,12.90
2018-10-12T21:23:28.307Z,12.80
2018-10-12T21:25:56.816Z,12.70
2018-10-12T21:28:25.437Z,12.70
2018-10-12T21:30:53.859Z,12.60
2018-10-12T21:33:22.388Z,12.40
2018-10-12T21:35:50.933Z,12.30
2018-10-12T21:38:19.489Z,12.20
2018-10-12T21:40:50.856Z,12.20
2018-10-12T21:43:19.350Z,12.20
2018-10-12T21:45:47.856Z,12.20
2018-10-12T21:48:16.398Z,12.20
2018-10-12T21:50:44.909Z,12.10
2018-10-12T21:53:13.393Z,11.90
2018-10-12T21:55:41.927Z,11.80
2018-10-12T21:58:10.451Z,11.80
2018-10-12T22:00:39.003Z,11.80
2018-10-12T22:03:07.575Z,11.90
2018-10-12T22:05:36.089Z,11.90
2018-10-12T22:08:04.595Z,11.80
2018-10-12T22:10:33.135Z,11.80
2018-10-12T22:13:01.636Z,11.80
2018-10-12T22:15:30.168Z,11.80
2018-10-12T22:17:58.697Z,11.70
2018-10-12T22:20:27.219Z,11.70
2018-10-12T22:22:55.756Z,11.70
2018-10-12T22:25:24.273Z,11.60
2018-10-12T22:27:52.829Z,11.50
2018-10-12T22:30:21.376Z,11.50
2018-10-12T22:32:49.912Z,11.50
2018-10-12T22:35:18.440Z,11.40
2018-10-12T22:37:46.990Z,11.30
2018-10-12T22:40:15.492Z,11.20
2018-10-12T22:42:44.725Z,11.20
2018-10-12T22:45:13.214Z,11.10
2018-10-12T22:47:41.747Z,11.10
2018-10-12T22:50:10.305Z,11.10
2018-10-12T22:52:38.843Z,11.10
2018-10-12T22:55:07.362Z,11.10
2018-10-12T22:57:35.851Z,11.00
2018-10-12T23:00:04.443Z,11.00
2018-10-12T23:02:32.964Z,11.00
2018-10-12T23:05:01.488Z,10.80
2018-10-12T23:07:30.035Z,10.70
2018-10-12T23:09:58.533Z,10.70
2018-10-12T23:12:27.055Z,10.70
2018-10-12T23:14:55.599Z,10.80
2018-10-12T23:17:24.118Z,10.70
2018-10-12T23:19:52.650Z,10.60
2018-10-12T23:22:21.144Z,10.60
2018-10-12T23:24:49.680Z,10.50
2018-10-12T23:27:18.203Z,10.60
2018-10-12T23:29:46.814Z,10.50
2018-10-12T23:32:15.324Z,10.40
2018-10-12T23:34:43.820Z,10.40
2018-10-12T23:37:12.340Z,10.40
2018-10-12T23:39:40.852Z,10.30
2018-10-12T23:42:09.371Z,10.30
2018-10-12T23:44:37.916Z,10.20
2018-10-12T23:47:06.596Z,10.30
2018-10-12T23:49:35.104Z,10.40
2018-10-12T23:52:03.625Z,10.40
2018-10-12T23:54:32.129Z,10.40
2018-10-12T23:57:00.652Z,10.30
2018-10-12T23:59:29.226Z,10.30
